createdAt,value
2018-04-08T00:00:25.331Z,66.0
2018-04-08T00:01:26.945Z,66.3
2018-04-08T00:02:28.555Z,66.4
2018-04-08T00:03:30.172Z,66.3
2018-04-08T00:04:31.785Z,66.3
2018-04-08T00:05:33.615Z,66.3
2018-04-08T00:06:35.304Z,66.0
2018-04-08T00:07:36.920Z,66.1
2018-04-08T00:08:38.534Z,66.2
2018-04-08T00:09:40.643Z,66.3
2018-04-08T00:10:42.291Z,66.3
2018-04-08T00:11:44.054Z,66.5
2018-04-08T00:12:46.030Z,66.4
2018-04-08T00:13:47.651Z,66.3
2018-04-08T00:14:49.449Z,66.5
2018-04-08T00:15:51.060Z,66.2
2018-04-08T00:16:52.898Z,65.9
2018-04-08T00:17:54.690Z,66.7
2018-04-08T00:18:56.848Z,66.1
2018-04-08T00:19:58.497Z,66.0
2018-04-08T00:21:00.115Z,66.0
2018-04-08T00:22:01.855Z,65.9
2018-04-08T00:23:03.856Z,66.0
2018-04-08T00:24:05.545Z,65.6
2018-04-08T00:25:07.180Z,66.0
2018-04-08T00:26:08.908Z,65.9
2018-04-08T00:27:10.519Z,65.9
2018-04-08T00:28:12.135Z,65.6
2018-04-08T00:29:13.748Z,65.3
2018-04-08T00:30:15.355Z,65.7
2018-04-08T00:31:16.975Z,65.5
2018-04-08T00:32:18.584Z,65.6
2018-04-08T00:33:20.202Z,65.3
2018-04-08T00:34:21.814Z,66.2
2018-04-08T00:35:23.425Z,66.0
2018-04-08T00:36:25.037Z,66.3
2018-04-08T00:37:26.656Z,65.8
2018-04-08T00:38:28.274Z,66.0
2018-04-08T00:39:29.885Z,66.2
2018-04-08T00:40:31.494Z,66.2
2018-04-08T00:41:33.111Z,65.4
2018-04-08T00:42:34.718Z,66.0
2018-04-08T00:43:36.335Z,65.5
2018-04-08T00:44:37.943Z,65.5
2018-04-08T00:45:39.556Z,66.0
2018-04-08T00:46:41.179Z,65.6
2018-04-08T00:47:42.789Z,65.5
2018-04-08T00:48:44.453Z,65.9
2018-04-08T00:49:46.017Z,66.3
2018-04-08T00:50:47.627Z,66.0
2018-04-08T00:51:49.242Z,66.3
2018-04-08T00:52:50.858Z,66.3
2018-04-08T00:53:52.469Z,66.1
2018-04-08T00:54:54.077Z,66.2
2018-04-08T00:55:55.694Z,66.3
2018-04-08T00:56:57.305Z,66.3
2018-04-08T00:57:58.918Z,66.1
2018-04-08T00:59:00.528Z,66.3
2018-04-08T01:00:02.143Z,66.6
2018-04-08T01:01:03.756Z,66.5
2018-04-08T01:02:05.372Z,66.5
2018-04-08T01:03:06.980Z,66.2
2018-04-08T01:04:08.599Z,66.6
2018-04-08T01:05:10.208Z,66.3
2018-04-08T01:06:11.820Z,66.5
2018-04-08T01:07:13.440Z,66.7
2018-04-08T01:08:15.050Z,66.3
2018-04-08T01:09:16.663Z,66.5
2018-04-08T01:10:18.272Z,66.7
2018-04-08T01:11:19.890Z,66.2
2018-04-08T01:12:21.499Z,67.0
2018-04-08T01:13:23.115Z,67.6
2018-04-08T01:14:24.727Z,66.9
2018-04-08T01:15:26.341Z,67.1
2018-04-08T01:16:27.948Z,67.6
2018-04-08T01:17:29.561Z,67.5
2018-04-08T01:18:31.177Z,67.6
2018-04-08T01:19:32.789Z,67.5
2018-04-08T01:20:34.406Z,67.6
2018-04-08T01:21:36.017Z,67.8
2018-04-08T01:22:37.628Z,67.9
2018-04-08T01:23:39.242Z,67.7
2018-04-08T01:24:40.850Z,67.4
2018-04-08T01:25:42.467Z,67.4
2018-04-08T01:26:44.074Z,68.0
2018-04-08T01:27:45.689Z,68.1
2018-04-08T01:28:47.300Z,68.1
2018-04-08T01:29:48.916Z,68.6
2018-04-08T01:30:50.523Z,68.4
2018-04-08T01:31:52.141Z,68.4
2018-04-08T01:32:53.758Z,68.7
2018-04-08T01:33:55.364Z,68.6
2018-04-08T01:34:56.977Z,69.1
2018-04-08T01:35:58.591Z,69.0
2018-04-08T01:37:00.206Z,68.3
2018-04-08T01:38:01.818Z,68.2
2018-04-08T01:39:03.430Z,68.5
2018-04-08T01:40:05.043Z,68.9
2018-04-08T01:41:06.659Z,69.1
2018-04-08T01:42:08.262Z,69.0
2018-04-08T01:43:09.886Z,69.2
2018-04-08T01:44:11.496Z,69.0
2018-04-08T01:45:13.105Z,69.2
2018-04-08T01:46:14.713Z,69.7
2018-04-08T01:47:16.328Z,69.7
2018-04-08T01:48:17.940Z,70.0
2018-04-08T01:49:19.548Z,70.0
2018-04-08T01:50:21.160Z,70.1
2018-04-08T01:51:22.774Z,70.6
2018-04-08T01:52:24.387Z,70.0
2018-04-08T01:53:26.002Z,70.3
2018-04-08T01:54:27.617Z,70.1
2018-04-08T01:55:29.248Z,70.7
2018-04-08T01:56:30.857Z,70.6
2018-04-08T01:57:32.477Z,71.3
2018-04-08T01:58:34.087Z,71.1
2018-04-08T01:59:35.704Z,71.1
2018-04-08T02:00:37.312Z,71.7
2018-04-08T02:01:38.926Z,71.6
2018-04-08T02:02:40.536Z,71.2
2018-04-08T02:03:42.151Z,71.2
2018-04-08T02:04:43.763Z,71.6
2018-04-08T02:05:45.374Z,71.1
2018-04-08T02:06:46.983Z,71.4
2018-04-08T02:07:48.601Z,71.6
2018-04-08T02:08:50.213Z,71.5
2018-04-08T02:09:51.826Z,71.4
2018-04-08T02:10:53.437Z,71.3
2018-04-08T02:11:55.048Z,71.8
2018-04-08T02:12:56.664Z,72.0
2018-04-08T02:13:58.272Z,72.0
2018-04-08T02:14:59.889Z,72.2
2018-04-08T02:16:01.500Z,72.3
2018-04-08T02:17:03.111Z,71.9
2018-04-08T02:18:04.721Z,72.3
2018-04-08T02:19:06.349Z,72.2
2018-04-08T02:20:07.948Z,72.5
2018-04-08T02:21:09.565Z,72.4
2018-04-08T02:22:11.177Z,72.2
2018-04-08T02:23:12.787Z,72.6
2018-04-08T02:24:14.402Z,72.5
2018-04-08T02:25:16.017Z,72.5
2018-04-08T02:26:17.625Z,72.8
2018-04-08T02:27:19.235Z,72.6
2018-04-08T02:28:20.845Z,72.5
2018-04-08T02:29:22.455Z,72.7
2018-04-08T02:30:24.070Z,72.7
2018-04-08T02:31:25.686Z,72.6
2018-04-08T02:32:27.298Z,72.5
2018-04-08T02:33:28.907Z,72.5
2018-04-08T02:34:30.521Z,72.4
2018-04-08T02:35:32.133Z,72.7
2018-04-08T02:36:33.742Z,73.1
2018-04-08T02:37:35.349Z,72.9
2018-04-08T02:38:36.963Z,73.6
2018-04-08T02:39:38.575Z,73.5
2018-04-08T02:40:40.186Z,73.1
2018-04-08T02:41:41.798Z,73.8
2018-04-08T02:42:43.407Z,73.4
2018-04-08T02:43:45.017Z,72.6
2018-04-08T02:44:46.633Z,72.3
2018-04-08T02:45:48.239Z,72.2
2018-04-08T02:46:49.856Z,72.4
2018-04-08T02:47:51.466Z,72.3
2018-04-08T02:48:53.087Z,72.3
2018-04-08T02:49:54.694Z,72.3
2018-04-08T02:50:56.308Z,72.4
2018-04-08T02:51:57.919Z,72.0
2018-04-08T02:52:59.533Z,72.1
2018-04-08T02:54:01.148Z,73.3
2018-04-08T02:55:02.770Z,72.3
2018-04-08T02:56:04.367Z,71.4
2018-04-08T02:57:05.984Z,71.4
2018-04-08T02:58:07.595Z,72.1
2018-04-08T02:59:09.205Z,72.1
2018-04-08T03:00:10.816Z,72.3
2018-04-08T03:01:12.432Z,71.4
2018-04-08T03:02:14.048Z,70.9
2018-04-08T03:03:15.673Z,71.1
2018-04-08T03:04:17.273Z,71.1
2018-04-08T03:05:18.889Z,70.7
2018-04-08T03:06:20.503Z,71.2
2018-04-08T03:07:22.112Z,70.5
2018-04-08T03:08:23.722Z,70.1
2018-04-08T03:09:25.374Z,69.7
2018-04-08T03:10:26.952Z,69.5
2018-04-08T03:11:28.558Z,69.0
2018-04-08T03:12:30.168Z,69.6
2018-04-08T03:13:31.784Z,69.1
2018-04-08T03:14:33.390Z,69.1
2018-04-08T03:15:35.006Z,69.2
2018-04-08T03:16:36.622Z,68.9
2018-04-08T03:17:38.238Z,69.3
2018-04-08T03:18:39.853Z,69.5
2018-04-08T03:19:41.463Z,68.2
2018-04-08T03:20:43.078Z,68.4
2018-04-08T03:21:44.689Z,68.3
2018-04-08T03:22:46.303Z,68.6
2018-04-08T03:23:47.913Z,67.8
2018-04-08T03:24:49.524Z,68.6
2018-04-08T03:25:51.138Z,68.7
2018-04-08T03:26:52.745Z,69.1
2018-04-08T03:27:54.361Z,69.9
2018-04-08T03:28:55.970Z,69.4
2018-04-08T03:29:57.586Z,68.6
2018-04-08T03:30:59.205Z,69.1
2018-04-08T03:32:00.815Z,68.9
2018-04-08T03:33:02.429Z,69.6
2018-04-08T03:34:04.043Z,69.0
2018-04-08T03:35:05.652Z,68.7
2018-04-08T03:36:07.268Z,68.2
2018-04-08T03:37:08.878Z,68.6
2018-04-08T03:38:10.493Z,68.9
2018-04-08T03:39:12.102Z,68.7
2018-04-08T03:40:13.721Z,68.6
2018-04-08T03:41:15.325Z,68.7
2018-04-08T03:42:16.940Z,69.0
2018-04-08T03:43:18.560Z,68.8
2018-04-08T03:44:20.166Z,68.6
2018-04-08T03:45:21.786Z,68.8
2018-04-08T03:46:23.398Z,68.9
2018-04-08T03:47:25.015Z,69.1
2018-04-08T03:48:26.622Z,68.9
2018-04-08T03:49:28.238Z,68.7
2018-04-08T03:50:29.847Z,69.1
2018-04-08T03:51:31.458Z,69.2
2018-04-08T03:52:33.074Z,68.6
2018-04-08T03:53:34.686Z,68.7
2018-04-08T03:54:36.299Z,69.1
2018-04-08T03:55:37.908Z,68.7
2018-04-08T03:56:39.523Z,68.3
2018-04-08T03:57:41.131Z,68.0
2018-04-08T03:58:42.748Z,67.9
2018-04-08T03:59:44.359Z,68.0
2018-04-08T04:00:45.980Z,67.8
2018-04-08T04:01:47.585Z,67.6
2018-04-08T04:02:49.204Z,67.5
2018-04-08T04:03:50.813Z,67.5
2018-04-08T04:04:52.428Z,66.8
2018-04-08T04:05:54.038Z,66.7
2018-04-08T04:06:55.654Z,66.5
2018-04-08T04:07:57.271Z,66.3
2018-04-08T04:08:58.876Z,66.2
2018-04-08T04:10:00.487Z,65.9
2018-04-08T04:11:02.101Z,65.9
2018-04-08T04:12:03.713Z,65.5
2018-04-08T04:13:05.325Z,65.2
2018-04-08T04:14:06.935Z,65.5
2018-04-08T04:15:08.552Z,65.3
2018-04-08T04:16:10.160Z,65.0
2018-04-08T04:17:11.775Z,64.4
2018-04-08T04:18:13.390Z,64.4
2018-04-08T04:19:15.000Z,64.1
2018-04-08T04:20:16.618Z,64.1
2018-04-08T04:21:18.228Z,64.8
2018-04-08T04:22:19.840Z,64.2
2018-04-08T04:23:21.449Z,63.9
2018-04-08T04:24:23.066Z,63.9
2018-04-08T04:25:24.678Z,64.1
2018-04-08T04:26:26.292Z,64.1
2018-04-08T04:27:27.905Z,64.0
2018-04-08T04:28:29.521Z,63.7
2018-04-08T04:29:31.130Z,63.6
2018-04-08T04:30:32.740Z,63.7
2018-04-08T04:31:34.355Z,63.0
2018-04-08T04:32:35.963Z,63.1
2018-04-08T04:33:37.579Z,63.0
2018-04-08T04:34:39.195Z,63.0
2018-04-08T04:35:40.808Z,63.1
2018-04-08T04:36:42.427Z,63.2
2018-04-08T04:37:44.089Z,62.9
2018-04-08T04:38:45.649Z,63.1
2018-04-08T04:39:47.259Z,63.2
2018-04-08T04:40:48.870Z,62.8
2018-04-08T04:41:50.488Z,63.0
2018-04-08T04:42:52.097Z,63.0
2018-04-08T04:43:53.715Z,62.9
2018-04-08T04:44:55.323Z,62.5
2018-04-08T04:45:56.939Z,62.9
2018-04-08T04:46:58.549Z,63.1
2018-04-08T04:48:00.167Z,63.1
2018-04-08T04:49:01.777Z,63.0
2018-04-08T04:50:03.394Z,63.6
2018-04-08T04:51:05.012Z,63.5
2018-04-08T04:52:06.622Z,63.8
2018-04-08T04:53:08.237Z,63.8
2018-04-08T04:54:09.857Z,63.2
2018-04-08T04:55:11.472Z,63.6
2018-04-08T04:56:13.091Z,64.1
2018-04-08T04:57:14.707Z,64.4
2018-04-08T04:58:16.321Z,64.4
2018-04-08T04:59:17.941Z,64.0
2018-04-08T05:00:19.554Z,63.9
2018-04-08T05:01:21.177Z,64.2
2018-04-08T05:02:22.789Z,64.1
2018-04-08T05:03:24.408Z,63.4
2018-04-08T05:04:26.025Z,63.9
2018-04-08T05:05:27.639Z,63.7
2018-04-08T05:06:29.258Z,63.8
2018-04-08T05:07:30.870Z,63.9
2018-04-08T05:08:32.485Z,64.2
2018-04-08T05:09:34.108Z,63.6
2018-04-08T05:10:35.727Z,63.9
2018-04-08T05:11:37.344Z,63.3
2018-04-08T05:12:38.961Z,63.3
2018-04-08T05:13:40.574Z,64.0
2018-04-08T05:14:42.194Z,64.2
2018-04-08T05:15:43.811Z,63.7
2018-04-08T05:16:45.420Z,63.4
2018-04-08T05:17:47.041Z,63.6
2018-04-08T05:18:48.661Z,63.0
2018-04-08T05:19:50.278Z,63.5
2018-04-08T05:20:51.890Z,63.1
2018-04-08T05:21:53.510Z,63.3
2018-04-08T05:22:55.128Z,63.3
2018-04-08T05:23:56.743Z,63.6
2018-04-08T05:24:58.361Z,62.7
2018-04-08T05:25:59.977Z,63.6
2018-04-08T05:27:01.600Z,63.6
2018-04-08T05:28:03.213Z,63.1
2018-04-08T05:29:04.831Z,63.2
2018-04-08T05:30:06.454Z,62.9
2018-04-08T05:31:08.069Z,62.8
2018-04-08T05:32:09.693Z,63.1
2018-04-08T05:33:11.308Z,63.1
2018-04-08T05:34:12.932Z,63.0
2018-04-08T05:35:14.545Z,63.1
2018-04-08T05:36:16.167Z,62.9
2018-04-08T05:37:17.785Z,62.2
2018-04-08T05:38:19.397Z,62.4
2018-04-08T05:39:21.020Z,63.2
2018-04-08T05:40:22.640Z,63.0
2018-04-08T05:41:24.260Z,63.3
2018-04-08T05:42:25.883Z,63.3
2018-04-08T05:43:27.496Z,63.3
2018-04-08T05:44:29.119Z,63.1
2018-04-08T05:45:30.739Z,62.9
2018-04-08T05:46:32.357Z,63.0
2018-04-08T05:47:33.980Z,62.6
2018-04-08T05:48:35.599Z,63.0
2018-04-08T05:49:37.221Z,62.7
2018-04-08T05:50:38.833Z,63.1
2018-04-08T05:51:40.457Z,63.0
2018-04-08T05:52:42.070Z,63.0
2018-04-08T05:53:43.693Z,62.9
2018-04-08T05:54:45.317Z,63.3
2018-04-08T05:55:46.940Z,63.4
2018-04-08T05:56:48.563Z,63.2
2018-04-08T05:57:50.181Z,62.9
2018-04-08T05:58:51.799Z,62.7
2018-04-08T05:59:53.417Z,62.1
2018-04-08T06:00:55.034Z,62.1
2018-04-08T06:01:56.666Z,61.9
2018-04-08T06:02:58.281Z,61.9
2018-04-08T06:03:59.896Z,61.9
2018-04-08T06:05:01.516Z,61.8
2018-04-08T06:06:03.134Z,61.8
2018-04-08T06:07:04.757Z,62.2
2018-04-08T06:08:06.373Z,62.1
2018-04-08T06:09:07.999Z,62.1
2018-04-08T06:10:09.617Z,62.1
2018-04-08T06:11:11.236Z,61.7
2018-04-08T06:12:12.858Z,61.9
2018-04-08T06:13:14.479Z,61.9
2018-04-08T06:14:16.100Z,61.8
2018-04-08T06:15:17.723Z,61.9
2018-04-08T06:16:19.343Z,61.2
2018-04-08T06:17:20.963Z,61.5
2018-04-08T06:18:22.588Z,61.6
2018-04-08T06:19:24.199Z,61.0
2018-04-08T06:20:25.822Z,61.0
2018-04-08T06:21:27.441Z,61.0
2018-04-08T06:22:29.060Z,61.6
2018-04-08T06:23:30.682Z,62.0
2018-04-08T06:24:32.304Z,61.8
2018-04-08T06:25:33.924Z,62.2
2018-04-08T06:26:35.542Z,61.5
2018-04-08T06:27:37.164Z,61.1
2018-04-08T06:28:38.786Z,61.0
2018-04-08T06:29:40.406Z,60.7
2018-04-08T06:30:42.024Z,60.8
2018-04-08T06:31:43.649Z,61.2
2018-04-08T06:32:45.262Z,61.0
2018-04-08T06:33:46.886Z,61.0
2018-04-08T06:34:48.508Z,60.4
2018-04-08T06:35:50.131Z,60.5
2018-04-08T06:36:51.748Z,61.0
2018-04-08T06:37:53.372Z,61.0
2018-04-08T06:38:54.991Z,60.6
2018-04-08T06:39:56.615Z,60.4
2018-04-08T06:40:58.234Z,58.8
2018-04-08T06:41:59.859Z,58.2
2018-04-08T06:43:01.472Z,58.0
2018-04-08T06:44:03.089Z,57.1
2018-04-08T06:45:04.713Z,57.0
2018-04-08T06:46:06.336Z,55.6
2018-04-08T06:47:07.978Z,56.0
2018-04-08T06:48:09.576Z,55.0
2018-04-08T06:49:11.199Z,53.7
2018-04-08T06:50:12.822Z,52.5
2018-04-08T06:51:14.447Z,51.2
2018-04-08T06:52:16.071Z,49.6
2018-04-08T06:53:17.695Z,48.1
2018-04-08T06:54:19.312Z,47.8
2018-04-08T06:55:20.936Z,46.4
2018-04-08T06:56:22.554Z,44.6
2018-04-08T06:57:24.185Z,43.0
2018-04-08T06:58:25.879Z,43.4
2018-04-08T06:59:27.432Z,43.5
2018-04-08T07:00:29.059Z,43.5
2018-04-08T07:01:30.679Z,43.6
2018-04-08T07:02:32.299Z,44.2
2018-04-08T07:03:33.928Z,44.2
2018-04-08T07:04:35.552Z,44.4
2018-04-08T07:05:37.171Z,44.3
2018-04-08T07:06:38.798Z,43.9
2018-04-08T07:07:40.424Z,43.6
2018-04-08T07:08:42.045Z,44.5
2018-04-08T07:09:43.671Z,45.4
2018-04-08T07:10:45.296Z,45.4
2018-04-08T07:11:47.003Z,45.3
2018-04-08T07:12:48.626Z,45.2
2018-04-08T07:13:50.251Z,45.8
2018-04-08T07:14:51.880Z,46.2
2018-04-08T07:15:53.506Z,45.2
2018-04-08T07:16:55.125Z,45.1
2018-04-08T07:17:56.753Z,45.5
2018-04-08T07:18:58.375Z,45.4
2018-04-08T07:20:00.002Z,44.6
2018-04-08T07:21:01.624Z,43.4
2018-04-08T07:22:03.251Z,43.6
2018-04-08T07:23:04.871Z,43.4
2018-04-08T07:24:06.501Z,43.5
2018-04-08T07:25:08.260Z,43.1
2018-04-08T07:26:09.863Z,43.4
2018-04-08T07:27:11.487Z,42.7
2018-04-08T07:28:13.110Z,42.0
2018-04-08T07:29:14.742Z,41.9
2018-04-08T07:30:16.374Z,41.3
2018-04-08T07:31:17.993Z,41.5
2018-04-08T07:32:19.614Z,41.1
2018-04-08T07:33:21.235Z,41.3
2018-04-08T07:34:22.866Z,41.2
2018-04-08T07:35:24.489Z,41.5
2018-04-08T07:36:26.121Z,41.6
2018-04-08T07:37:27.743Z,41.6
2018-04-08T07:38:29.369Z,41.2
2018-04-08T07:39:30.996Z,41.5
2018-04-08T07:40:32.620Z,41.3
2018-04-08T07:41:34.245Z,41.4
2018-04-08T07:42:35.868Z,41.1
2018-04-08T07:43:37.499Z,42.4
2018-04-08T07:44:40.292Z,41.8
2018-04-08T07:45:41.921Z,42.2
2018-04-08T07:46:43.542Z,41.4
2018-04-08T07:47:45.170Z,41.9
2018-04-08T07:48:46.793Z,42.5
2018-04-08T07:49:48.424Z,43.6
2018-04-08T07:50:50.045Z,42.7
2018-04-08T07:51:51.667Z,43.0
2018-04-08T07:52:53.291Z,42.4
2018-04-08T07:53:54.916Z,43.2
2018-04-08T07:54:56.539Z,43.7
2018-04-08T07:55:58.160Z,43.6
2018-04-08T07:56:59.788Z,43.3
2018-04-08T07:58:01.411Z,43.6
2018-04-08T07:59:03.035Z,43.8
2018-04-08T08:00:04.672Z,43.4
2018-04-08T08:01:06.317Z,43.7
2018-04-08T08:02:07.947Z,43.7
2018-04-08T08:03:09.577Z,43.6
2018-04-08T08:04:11.198Z,43.0
2018-04-08T08:05:12.826Z,43.5
2018-04-08T08:06:14.447Z,43.8
2018-04-08T08:07:16.068Z,43.5
2018-04-08T08:08:17.691Z,43.6
2018-04-08T08:09:19.318Z,43.3
2018-04-08T08:10:20.945Z,43.5
2018-04-08T08:11:22.566Z,43.7
2018-04-08T08:12:24.188Z,43.6
2018-04-08T08:13:25.810Z,43.2
2018-04-08T08:14:27.439Z,42.7
2018-04-08T08:15:29.057Z,42.4
2018-04-08T08:16:30.680Z,43.5
2018-04-08T08:17:32.306Z,43.7
2018-04-08T08:18:33.929Z,42.9
2018-04-08T08:19:35.551Z,42.9
2018-04-08T08:20:37.174Z,43.0
2018-04-08T08:21:38.803Z,43.3
2018-04-08T08:22:40.466Z,43.4
2018-04-08T08:23:42.084Z,42.8
2018-04-08T08:24:43.674Z,43.0
2018-04-08T08:25:45.304Z,43.0
2018-04-08T08:26:46.923Z,42.8
2018-04-08T08:27:48.549Z,42.6
2018-04-08T08:28:50.168Z,42.8
2018-04-08T08:29:51.796Z,42.3
2018-04-08T08:30:53.413Z,42.9
2018-04-08T08:31:55.058Z,42.1
2018-04-08T08:32:56.667Z,42.4
2018-04-08T08:33:58.292Z,42.6
2018-04-08T08:34:59.916Z,42.1
2018-04-08T08:36:01.546Z,41.6
2018-04-08T08:37:03.160Z,41.4
2018-04-08T08:38:04.786Z,41.7
2018-04-08T08:39:06.405Z,41.3
2018-04-08T08:40:08.032Z,41.5
2018-04-08T08:41:09.654Z,41.3
2018-04-08T08:42:11.280Z,41.8
2018-04-08T08:43:12.902Z,41.3
2018-04-08T08:44:14.543Z,40.9
2018-04-08T08:45:16.157Z,41.5
2018-04-08T08:46:17.894Z,41.0
2018-04-08T08:47:19.497Z,41.0
2018-04-08T08:48:21.128Z,40.7
2018-04-08T08:49:23.259Z,40.5
2018-04-08T08:50:25.083Z,40.1
2018-04-08T08:51:26.714Z,39.9
2018-04-08T08:52:28.344Z,39.8
2018-04-08T08:53:29.966Z,39.8
2018-04-08T08:54:31.667Z,40.1
2018-04-08T08:55:33.267Z,39.2
2018-04-08T08:56:34.890Z,39.4
2018-04-08T08:57:36.515Z,38.6
2018-04-08T08:58:38.144Z,38.2
2018-04-08T08:59:39.772Z,37.6
2018-04-08T09:00:41.396Z,37.2
2018-04-08T09:01:43.021Z,38.1
2018-04-08T09:02:44.652Z,36.5
2018-04-08T09:03:46.279Z,36.7
2018-04-08T09:04:47.904Z,36.7
2018-04-08T09:05:49.530Z,36.2
2018-04-08T09:06:51.166Z,34.2
2018-04-08T09:07:52.800Z,33.7
2018-04-08T09:08:54.424Z,33.1
2018-04-08T09:09:56.055Z,32.6
2018-04-08T09:10:57.687Z,31.6
2018-04-08T09:11:59.316Z,31.0
2018-04-08T09:13:00.942Z,32.4
2018-04-08T09:14:02.575Z,31.7
2018-04-08T09:15:04.205Z,31.6
2018-04-08T09:16:05.840Z,30.2
2018-04-08T09:17:07.468Z,29.7
2018-04-08T09:18:09.118Z,28.7
2018-04-08T09:19:10.748Z,28.6
2018-04-08T09:20:12.383Z,28.0
2018-04-08T09:21:14.015Z,27.3
2018-04-08T09:22:15.652Z,27.9
2018-04-08T09:23:17.287Z,28.5
2018-04-08T09:24:18.923Z,28.8
2018-04-08T09:25:20.556Z,28.7
2018-04-08T09:26:22.260Z,28.7
2018-04-08T09:27:23.895Z,28.7
2018-04-08T09:28:25.528Z,29.2
2018-04-08T09:29:27.167Z,28.7
2018-04-08T09:30:28.794Z,28.4
2018-04-08T09:31:30.432Z,28.4
2018-04-08T09:32:32.057Z,28.4
2018-04-08T09:33:33.694Z,28.4
2018-04-08T09:34:35.368Z,28.2
2018-04-08T09:35:36.996Z,28.3
2018-04-08T09:36:38.626Z,28.7
2018-04-08T09:37:40.266Z,28.6
2018-04-08T09:38:41.907Z,27.5
2018-04-08T09:39:43.536Z,28.5
2018-04-08T09:40:45.167Z,27.9
2018-04-08T09:41:46.797Z,26.9
2018-04-08T09:42:48.429Z,25.9
2018-04-08T09:43:50.066Z,25.6
2018-04-08T09:44:51.702Z,25.5
2018-04-08T09:45:53.334Z,24.9
2018-04-08T09:46:54.968Z,24.7
2018-04-08T09:47:56.599Z,25.7
2018-04-08T09:48:58.239Z,25.4
2018-04-08T09:49:59.886Z,23.8
2018-04-08T09:51:01.527Z,24.8
2018-04-08T09:52:03.158Z,24.9
2018-04-08T09:53:04.801Z,25.7
2018-04-08T09:54:06.434Z,25.8
2018-04-08T09:55:08.070Z,26.7
2018-04-08T09:56:09.699Z,26.5
2018-04-08T09:57:11.340Z,26.0
2018-04-08T09:58:12.973Z,27.4
2018-04-08T09:59:14.615Z,27.8
2018-04-08T10:00:16.253Z,27.6
2018-04-08T10:01:17.882Z,28.2
2018-04-08T10:02:19.517Z,28.4
2018-04-08T10:03:21.152Z,28.5
2018-04-08T10:04:22.784Z,28.7
2018-04-08T10:05:24.423Z,28.4
2018-04-08T10:06:26.053Z,28.8
2018-04-08T10:07:27.685Z,28.9
2018-04-08T10:08:29.320Z,29.1
2018-04-08T10:09:30.946Z,29.9
2018-04-08T10:10:32.582Z,29.0
2018-04-08T10:11:34.220Z,28.8
2018-04-08T10:12:35.847Z,28.6
2018-04-08T10:13:37.487Z,27.5
2018-04-08T10:14:39.124Z,27.0
2018-04-08T10:15:40.759Z,26.2
2018-04-08T10:16:42.393Z,25.6
2018-04-08T10:17:44.028Z,26.2
2018-04-08T10:18:45.660Z,26.7
2018-04-08T10:19:47.297Z,27.3
2018-04-08T10:20:48.932Z,26.1
2018-04-08T10:21:50.614Z,25.8
2018-04-08T10:22:52.335Z,26.5
2018-04-08T10:23:53.949Z,26.6
2018-04-08T10:24:55.581Z,26.0
2018-04-08T10:25:57.372Z,25.2
2018-04-08T10:26:59.004Z,24.8
2018-04-08T10:28:00.641Z,23.5
2018-04-08T10:29:02.341Z,23.3
2018-04-08T10:30:03.911Z,23.4
2018-04-08T10:31:05.546Z,23.4
2018-04-08T10:32:07.189Z,22.9
2018-04-08T10:33:08.827Z,23.1
2018-04-08T10:34:10.463Z,23.1
2018-04-08T10:35:12.107Z,23.2
2018-04-08T10:36:13.927Z,22.7
2018-04-08T10:37:15.570Z,22.6
2018-04-08T10:38:17.199Z,22.6
2018-04-08T10:39:18.842Z,22.9
2018-04-08T10:40:20.685Z,22.8
2018-04-08T10:41:22.327Z,22.6
2018-04-08T10:42:23.964Z,22.5
2018-04-08T10:43:25.610Z,22.6
2018-04-08T10:44:27.248Z,22.7
2018-04-08T10:45:28.889Z,22.4
2018-04-08T10:46:30.531Z,22.3
2018-04-08T10:47:32.171Z,22.6
2018-04-08T10:48:33.810Z,21.7
2018-04-08T10:49:35.453Z,21.4
2018-04-08T10:50:37.171Z,21.6
2018-04-08T10:51:38.809Z,21.1
2018-04-08T10:52:40.446Z,21.1
2018-04-08T10:53:42.084Z,21.5
2018-04-08T10:54:43.728Z,20.1
2018-04-08T10:55:45.364Z,21.1
2018-04-08T10:56:47.008Z,21.4
2018-04-08T10:57:48.649Z,21.5
2018-04-08T10:58:50.293Z,21.6
2018-04-08T10:59:51.930Z,21.7
2018-04-08T11:00:53.569Z,21.2
2018-04-08T11:01:55.206Z,20.7
2018-04-08T11:02:56.845Z,20.0
2018-04-08T11:03:58.486Z,20.0
2018-04-08T11:05:00.155Z,20.5
2018-04-08T11:06:01.775Z,20.5
2018-04-08T11:07:03.411Z,19.9
2018-04-08T11:08:05.084Z,19.1
2018-04-08T11:09:06.727Z,19.9
2018-04-08T11:10:08.396Z,20.1
2018-04-08T11:11:10.004Z,20.3
2018-04-08T11:12:11.652Z,18.7
2018-04-08T11:13:13.293Z,19.1
2018-04-08T11:14:14.930Z,19.0
2018-04-08T11:15:16.569Z,18.9
2018-04-08T11:16:18.216Z,18.9
2018-04-08T11:17:19.853Z,19.3
2018-04-08T11:18:21.493Z,19.7
2018-04-08T11:19:23.142Z,19.8
2018-04-08T11:20:24.784Z,20.0
2018-04-08T11:21:26.427Z,19.2
2018-04-08T11:22:28.071Z,19.4
2018-04-08T11:23:29.702Z,19.2
2018-04-08T11:24:31.352Z,18.0
2018-04-08T11:25:32.991Z,18.5
2018-04-08T11:26:34.637Z,18.7
2018-04-08T11:27:36.272Z,19.2
2018-04-08T11:28:37.916Z,18.7
2018-04-08T11:29:39.554Z,19.2
2018-04-08T11:30:41.199Z,18.3
2018-04-08T11:31:42.837Z,18.8
2018-04-08T11:32:44.483Z,18.8
2018-04-08T11:33:46.122Z,17.6
2018-04-08T11:34:47.763Z,18.7
2018-04-08T11:35:49.407Z,18.4
2018-04-08T11:36:51.048Z,18.0
2018-04-08T11:37:52.687Z,17.7
2018-04-08T11:38:54.330Z,17.7
2018-04-08T11:39:55.975Z,17.8
2018-04-08T11:40:57.616Z,17.1
2018-04-08T11:41:59.259Z,17.4
2018-04-08T11:43:00.898Z,17.8
2018-04-08T11:44:02.542Z,17.6
2018-04-08T11:45:04.180Z,17.4
2018-04-08T11:46:05.821Z,17.5
2018-04-08T11:47:07.474Z,17.8
2018-04-08T11:48:09.118Z,18.4
2018-04-08T11:49:10.754Z,17.8
2018-04-08T11:50:12.462Z,17.1
2018-04-08T11:51:14.104Z,17.2
2018-04-08T11:52:15.743Z,17.6
2018-04-08T11:53:17.384Z,17.3
2018-04-08T11:54:19.027Z,17.6
2018-04-08T11:55:20.674Z,17.9
2018-04-08T11:56:22.314Z,17.8
2018-04-08T11:57:23.952Z,17.6
2018-04-08T11:58:25.590Z,17.2
2018-04-08T11:59:27.233Z,17.1
2018-04-08T12:00:28.874Z,17.7
2018-04-08T12:01:30.518Z,16.7
2018-04-08T12:02:32.155Z,17.1
2018-04-08T12:03:33.800Z,17.3
2018-04-08T12:04:35.444Z,17.7
2018-04-08T12:05:37.084Z,17.2
2018-04-08T12:06:38.726Z,17.1
2018-04-08T12:07:40.378Z,16.8
2018-04-08T12:08:42.008Z,17.0
2018-04-08T12:09:43.648Z,16.9
2018-04-08T12:10:45.286Z,17.2
2018-04-08T12:11:46.925Z,16.4
2018-04-08T12:12:48.562Z,16.3
2018-04-08T12:13:50.208Z,16.5
2018-04-08T12:14:51.846Z,17.2
2018-04-08T12:15:53.495Z,17.3
2018-04-08T12:16:55.134Z,17.5
2018-04-08T12:17:56.775Z,16.3
2018-04-08T12:18:58.417Z,17.2
2018-04-08T12:20:00.056Z,16.3
2018-04-08T12:21:01.694Z,15.9
2018-04-08T12:22:03.336Z,15.9
2018-04-08T12:23:04.974Z,16.7
2018-04-08T12:24:06.623Z,15.3
2018-04-08T12:25:08.262Z,15.6
2018-04-08T12:26:09.921Z,15.5
2018-04-08T12:27:11.561Z,15.8
2018-04-08T12:28:13.205Z,15.5
2018-04-08T12:29:14.847Z,15.7
2018-04-08T12:30:16.491Z,15.3
2018-04-08T12:31:18.194Z,15.4
2018-04-08T12:32:19.775Z,15.1
2018-04-08T12:33:21.409Z,15.4
2018-04-08T12:34:23.056Z,15.9
2018-04-08T12:35:24.691Z,16.2
2018-04-08T12:36:26.337Z,15.4
2018-04-08T12:37:27.980Z,15.8
2018-04-08T12:38:29.619Z,15.9
2018-04-08T12:39:31.261Z,16.4
2018-04-08T12:40:32.905Z,16.5
2018-04-08T12:41:34.551Z,17.1
2018-04-08T12:42:36.185Z,15.7
2018-04-08T12:43:37.830Z,16.6
2018-04-08T12:44:39.470Z,15.6
2018-04-08T12:45:41.131Z,15.2
2018-04-08T12:46:42.765Z,15.4
2018-04-08T12:47:44.401Z,16.1
2018-04-08T12:48:46.047Z,15.5
2018-04-08T12:49:47.691Z,15.1
2018-04-08T12:50:49.325Z,15.9
2018-04-08T12:51:51.022Z,15.3
2018-04-08T12:52:52.610Z,15.4
2018-04-08T12:53:54.269Z,15.7
2018-04-08T12:54:55.887Z,15.9
2018-04-08T12:55:57.522Z,16.5
2018-04-08T12:56:59.169Z,15.8
2018-04-08T12:58:00.807Z,15.4
2018-04-08T12:59:02.449Z,15.7
2018-04-08T13:00:04.086Z,15.9
2018-04-08T13:01:05.739Z,15.9
2018-04-08T13:02:07.370Z,15.1
2018-04-08T13:03:09.005Z,15.0
2018-04-08T13:04:10.646Z,15.4
2018-04-08T13:05:12.286Z,14.4
2018-04-08T13:06:14.971Z,15.2
2018-04-08T13:07:16.608Z,15.7
2018-04-08T13:08:18.243Z,15.2
2018-04-08T13:09:19.888Z,15.4
2018-04-08T13:10:21.524Z,15.2
2018-04-08T13:11:23.171Z,15.4
2018-04-08T13:12:24.809Z,15.3
2018-04-08T13:13:26.447Z,15.3
2018-04-08T13:14:28.092Z,15.7
2018-04-08T13:15:29.725Z,15.9
2018-04-08T13:16:31.361Z,15.3
2018-04-08T13:17:33.002Z,15.5
2018-04-08T13:18:34.638Z,15.2
2018-04-08T13:19:36.280Z,15.3
2018-04-08T13:20:37.918Z,14.7
2018-04-08T13:21:39.565Z,15.1
2018-04-08T13:22:41.200Z,15.2
2018-04-08T13:23:42.840Z,15.9
2018-04-08T13:24:44.477Z,15.9
2018-04-08T13:25:46.117Z,15.5
2018-04-08T13:26:47.754Z,15.4
2018-04-08T13:27:49.395Z,14.7
2018-04-08T13:28:51.041Z,14.7
2018-04-08T13:29:52.673Z,15.1
2018-04-08T13:30:54.313Z,15.5
2018-04-08T13:31:55.951Z,15.6
2018-04-08T13:32:57.590Z,15.6
2018-04-08T13:33:59.227Z,15.4
2018-04-08T13:35:00.874Z,15.2
2018-04-08T13:36:02.509Z,14.5
2018-04-08T13:37:04.151Z,15.0
2018-04-08T13:38:05.782Z,15.7
2018-04-08T13:39:07.420Z,15.1
2018-04-08T13:40:09.060Z,15.4